createdAt,value
2022-10-30T00:00:18.126Z,97838.00
2022-10-30T00:03:05.372Z,97825.00
2022-10-30T00:05:56.349Z,97825.00
2022-10-30T00:08:36.434Z,97823.00
2022-10-30T00:11:23.356Z,97830.00
2022-10-30T00:14:03.417Z,97841.00
2022-10-30T00:16:50.377Z,97820.00
2022-10-30T00:19:30.408Z,97822.00
2022-10-30T00:22:18.366Z,97813.00
2022-10-30T00:24:58.424Z,97811.00
2022-10-30T00:27:45.358Z,97817.00
2022-10-30T00:30:25.411Z,97822.00
2022-10-30T00:33:12.376Z,97810.00
2022-10-30T00:36:03.404Z,97799.00
2022-10-30T00:38:44.017Z,97812.00
2022-10-30T00:41:37.364Z,97821.00
2022-10-30T00:44:40.975Z,97812.00
2022-10-30T00:47:38.398Z,97796.00
2022-10-30T00:50:29.603Z,97787.00
2022-10-30T00:53:30.367Z,97792.00
2022-10-30T00:56:22.349Z,97812.00
2022-10-30T00:59:10.420Z,97809.00
2022-10-30T01:01:59.494Z,97826.00
2022-10-30T01:04:44.429Z,97830.00
2022-10-30T01:07:31.361Z,97805.00
2022-10-30T01:10:12.542Z,97806.00
2022-10-30T01:13:02.380Z,97817.00
2022-10-30T01:16:09.356Z,97809.00
2022-10-30T01:19:30.605Z,97806.00
2022-10-30T01:23:01.603Z,97801.00
2022-10-30T01:26:24.571Z,97803.00
2022-10-30T01:29:53.455Z,97815.00
2022-10-30T01:33:07.393Z,97798.00
2022-10-30T01:36:09.404Z,97794.00
2022-10-30T01:39:03.988Z,97808.00
2022-10-30T01:41:51.379Z,97800.00
2022-10-30T01:44:33.958Z,97800.00
2022-10-30T01:47:58.092Z,97812.00
2022-10-30T01:51:27.421Z,97801.00
2022-10-30T01:54:44.448Z,97794.00
2022-10-30T01:57:54.408Z,97799.00
2022-10-30T02:00:35.444Z,97795.00
2022-10-30T02:03:22.418Z,97801.00
2022-10-30T02:06:02.434Z,97798.00
2022-10-30T02:08:49.413Z,97787.00
2022-10-30T02:11:40.413Z,97805.00
2022-10-30T02:14:32.760Z,97787.00
2022-10-30T02:17:23.423Z,97804.00
2022-10-30T02:20:04.777Z,97792.00
2022-10-30T02:22:54.486Z,97796.00
2022-10-30T02:25:46.407Z,97787.00
2022-10-30T02:28:26.466Z,97787.00
2022-10-30T02:31:14.412Z,97790.00
2022-10-30T02:33:55.466Z,97793.00
2022-10-30T02:36:42.430Z,97797.00
2022-10-30T02:39:23.502Z,97794.00
2022-10-30T02:42:12.457Z,97795.00
2022-10-30T02:44:59.431Z,97790.00
2022-10-30T02:47:40.117Z,97787.00
2022-10-30T02:50:26.476Z,97799.00
2022-10-30T02:53:07.195Z,97798.00
2022-10-30T02:55:53.433Z,97793.00
2022-10-30T02:58:34.182Z,97811.00
2022-10-30T03:01:32.609Z,97790.00
2022-10-30T03:04:13.102Z,97798.00
2022-10-30T03:07:00.417Z,97800.00
2022-10-30T03:09:42.047Z,97798.00
2022-10-30T03:12:21.456Z,97793.00
2022-10-30T03:15:08.460Z,97790.00
2022-10-30T03:17:52.304Z,97787.00
2022-10-30T03:20:38.451Z,97780.00
2022-10-30T03:23:19.048Z,97778.00
2022-10-30T03:26:08.447Z,97777.00
2022-10-30T03:28:56.128Z,97784.00
2022-10-30T03:31:45.453Z,97775.00
2022-10-30T03:34:27.608Z,97767.00
2022-10-30T03:37:18.449Z,97766.00
2022-10-30T03:39:59.118Z,97790.00
2022-10-30T03:42:47.450Z,97786.00
2022-10-30T03:45:34.440Z,97787.00
2022-10-30T03:48:22.453Z,97774.00
2022-10-30T03:51:10.448Z,97779.00
2022-10-30T03:53:53.507Z,97785.00
2022-10-30T03:56:40.472Z,97792.00
2022-10-30T03:59:23.605Z,97787.00
2022-10-30T04:02:36.459Z,97794.00
2022-10-30T04:05:23.454Z,97796.00
2022-10-30T04:08:08.051Z,97798.00
2022-10-30T04:11:00.558Z,97794.00
2022-10-30T04:13:47.493Z,97805.00
2022-10-30T04:16:35.489Z,97786.00
2022-10-30T04:19:16.129Z,97812.00
2022-10-30T04:22:02.480Z,97809.00
2022-10-30T04:24:43.133Z,97785.00
2022-10-30T04:27:30.480Z,97793.00
2022-10-30T04:30:19.503Z,97798.00
2022-10-30T04:33:03.636Z,97804.00
2022-10-30T04:35:50.464Z,97785.00
2022-10-30T04:38:30.788Z,97781.00
2022-10-30T04:41:19.468Z,97788.00
2022-10-30T04:44:07.534Z,97776.00
2022-10-30T04:46:54.506Z,97793.00
2022-10-30T04:49:34.573Z,97802.00
2022-10-30T04:52:21.495Z,97799.00
2022-10-30T04:55:01.821Z,97790.00
2022-10-30T04:57:48.484Z,97786.00
2022-10-30T05:00:35.503Z,97796.00
2022-10-30T05:03:24.891Z,97797.00
2022-10-30T05:06:19.495Z,97789.00
2022-10-30T05:09:00.204Z,97798.00
2022-10-30T05:11:56.022Z,97791.00
2022-10-30T05:14:45.366Z,97790.00
2022-10-30T05:17:31.744Z,97786.00
2022-10-30T05:20:14.872Z,97792.00
2022-10-30T05:23:09.510Z,97785.00
2022-10-30T05:25:56.513Z,97799.00
2022-10-30T05:28:37.562Z,97798.00
2022-10-30T05:31:24.516Z,97790.00
2022-10-30T05:34:24.564Z,97797.00
2022-10-30T05:37:19.519Z,97786.00
2022-10-30T05:39:59.748Z,97787.00
2022-10-30T05:42:52.707Z,97789.00
2022-10-30T05:45:40.513Z,97797.00
2022-10-30T05:48:21.109Z,97783.00
2022-10-30T05:51:12.521Z,97797.00
2022-10-30T05:53:58.146Z,97788.00
2022-10-30T05:56:46.522Z,97792.00
2022-10-30T05:59:27.165Z,97791.00
2022-10-30T06:02:13.581Z,97797.00
2022-10-30T06:04:54.144Z,97787.00
2022-10-30T06:07:40.516Z,97792.00
2022-10-30T06:10:27.544Z,97793.00
2022-10-30T06:13:20.571Z,97802.00
2022-10-30T06:16:12.537Z,97796.00
2022-10-30T06:19:17.344Z,97801.00
2022-10-30T06:22:07.525Z,97808.00
2022-10-30T06:24:52.596Z,97792.00
2022-10-30T06:27:58.798Z,97793.00
2022-10-30T06:30:46.543Z,97794.00
2022-10-30T06:33:27.160Z,97792.00
2022-10-30T06:36:13.539Z,97784.00
2022-10-30T06:38:54.252Z,97790.00
2022-10-30T06:41:49.543Z,97792.00
2022-10-30T06:44:52.221Z,97792.00
2022-10-30T06:47:38.537Z,97785.00
2022-10-30T06:50:28.551Z,97789.00
2022-10-30T06:53:08.613Z,97782.00
2022-10-30T06:56:10.580Z,97786.00
2022-10-30T06:59:09.594Z,97783.00
2022-10-30T07:02:07.144Z,97785.00
2022-10-30T07:05:09.581Z,97795.00
2022-10-30T07:07:50.155Z,97793.00
2022-10-30T07:10:37.562Z,97777.00
2022-10-30T07:13:44.170Z,97792.00
2022-10-30T07:17:09.574Z,97781.00
2022-10-30T07:19:56.217Z,97783.00
2022-10-30T07:22:43.569Z,97784.00
2022-10-30T07:25:30.560Z,97789.00
2022-10-30T07:28:27.625Z,97788.00
2022-10-30T07:32:02.768Z,97780.00
2022-10-30T07:35:01.642Z,97785.00
2022-10-30T07:38:14.575Z,97789.00
2022-10-30T07:41:08.590Z,97789.00
2022-10-30T07:43:57.214Z,97798.00
2022-10-30T07:47:02.574Z,97816.00
2022-10-30T07:50:12.576Z,97791.00
2022-10-30T07:52:53.679Z,97804.00
2022-10-30T07:55:42.584Z,97799.00
2022-10-30T07:58:45.418Z,97797.00
2022-10-30T08:02:08.674Z,97792.00
2022-10-30T08:05:08.645Z,97799.00
2022-10-30T08:08:21.602Z,97800.00
2022-10-30T08:11:13.672Z,97804.00
2022-10-30T08:14:00.591Z,97802.00
2022-10-30T08:16:47.587Z,97786.00
2022-10-30T08:19:28.215Z,97799.00
2022-10-30T08:22:14.600Z,97795.00
2022-10-30T08:25:03.358Z,97791.00
2022-10-30T08:27:49.598Z,97801.00
2022-10-30T08:30:41.601Z,97798.00
2022-10-30T08:33:25.705Z,97789.00
2022-10-30T08:36:37.605Z,97780.00
2022-10-30T08:39:17.684Z,97796.00
2022-10-30T08:42:13.604Z,97795.00
2022-10-30T08:44:54.631Z,97797.00
2022-10-30T08:47:41.599Z,97788.00
2022-10-30T08:53:17.609Z,97780.00
2022-10-30T08:56:06.734Z,97781.00
2022-10-30T08:59:09.412Z,97770.00
2022-10-30T09:01:57.719Z,97793.00
2022-10-30T09:08:24.610Z,97780.00
2022-10-30T09:11:27.801Z,97786.00
2022-10-30T09:14:07.683Z,97774.00
2022-10-30T09:16:54.724Z,97789.00
2022-10-30T09:19:35.756Z,97784.00
2022-10-30T09:22:23.641Z,97773.00
2022-10-30T09:25:03.699Z,97777.00
2022-10-30T09:28:02.631Z,97767.00
2022-10-30T09:31:09.650Z,97772.00
2022-10-30T09:33:50.253Z,97748.00
2022-10-30T09:37:02.636Z,97761.00
2022-10-30T09:39:44.309Z,97771.00
2022-10-30T09:42:44.650Z,97771.00
2022-10-30T09:45:53.633Z,97766.00
2022-10-30T09:49:26.632Z,97768.00
2022-10-30T09:52:50.693Z,97774.00
2022-10-30T09:55:58.419Z,97778.00
2022-10-30T09:59:00.824Z,97769.00
2022-10-30T10:02:38.774Z,97769.00
2022-10-30T10:05:40.664Z,97776.00
2022-10-30T10:08:49.731Z,97775.00
2022-10-30T10:12:03.825Z,97769.00
2022-10-30T10:14:50.693Z,97774.00
2022-10-30T10:17:43.660Z,97768.00
2022-10-30T10:20:53.788Z,97762.00
2022-10-30T10:23:47.146Z,97767.00
2022-10-30T10:27:19.666Z,97756.00
2022-10-30T10:30:44.666Z,97753.00
2022-10-30T10:33:44.742Z,97760.00
2022-10-30T10:36:52.673Z,97748.00
2022-10-30T10:39:48.742Z,97732.00
2022-10-30T10:43:08.672Z,97737.00
2022-10-30T10:46:29.683Z,97743.00
2022-10-30T10:50:01.733Z,97752.00
2022-10-30T10:52:53.708Z,97734.00
2022-10-30T10:55:45.694Z,97729.00
2022-10-30T10:58:42.794Z,97723.00
2022-10-30T11:01:49.764Z,97731.00
2022-10-30T11:04:49.753Z,97731.00
2022-10-30T11:07:51.799Z,97718.00
2022-10-30T11:10:38.704Z,97726.00
2022-10-30T11:13:19.371Z,97731.00
2022-10-30T11:16:48.812Z,97723.00
2022-10-30T11:19:32.023Z,97722.00
2022-10-30T11:22:38.706Z,97729.00
2022-10-30T11:25:31.746Z,97712.00
2022-10-30T11:28:12.739Z,97706.00
2022-10-30T11:31:40.848Z,97717.00
2022-10-30T11:34:23.799Z,97710.00
2022-10-30T11:37:11.700Z,97720.00
2022-10-30T11:40:21.842Z,97703.00
2022-10-30T11:43:11.720Z,97710.00
2022-10-30T11:45:59.709Z,97708.00
2022-10-30T11:48:45.372Z,97705.00
2022-10-30T11:51:46.739Z,97711.00
2022-10-30T11:54:30.733Z,97713.00
2022-10-30T11:57:24.928Z,97708.00
2022-10-30T12:00:17.925Z,97715.00
2022-10-30T12:03:11.744Z,97713.00
2022-10-30T12:05:59.853Z,97695.00
2022-10-30T12:08:46.711Z,97712.00
2022-10-30T12:11:40.729Z,97701.00
2022-10-30T12:14:29.802Z,97712.00
2022-10-30T12:17:22.766Z,97691.00
2022-10-30T12:20:03.784Z,97708.00
2022-10-30T12:22:50.762Z,97704.00
2022-10-30T12:25:37.810Z,97698.00
2022-10-30T12:28:29.736Z,97703.00
2022-10-30T12:31:33.753Z,97706.00
2022-10-30T12:34:44.498Z,97709.00
2022-10-30T12:37:48.728Z,97693.00
2022-10-30T12:40:42.766Z,97693.00
2022-10-30T12:43:28.902Z,97692.00
2022-10-30T12:46:40.766Z,97687.00
2022-10-30T12:49:56.825Z,97681.00
2022-10-30T12:53:17.758Z,97692.00
2022-10-30T12:56:13.769Z,97687.00
2022-10-30T12:59:19.445Z,97695.00
2022-10-30T13:02:26.830Z,97689.00
2022-10-30T13:05:35.805Z,97697.00
2022-10-30T13:08:55.838Z,97683.00
2022-10-30T13:12:04.792Z,97688.00
2022-10-30T13:14:52.821Z,97677.00
2022-10-30T13:17:39.766Z,97676.00
2022-10-30T13:20:28.779Z,97688.00
2022-10-30T13:23:20.171Z,97684.00
2022-10-30T13:26:49.800Z,97686.00
2022-10-30T13:29:36.201Z,97692.00
2022-10-30T13:33:03.229Z,97686.00
2022-10-30T13:36:10.817Z,97695.00
2022-10-30T13:39:02.886Z,97688.00
2022-10-30T13:42:43.822Z,97687.00
2022-10-30T13:46:08.824Z,97683.00
2022-10-30T13:49:03.514Z,97686.00
2022-10-30T13:52:12.878Z,97674.00
2022-10-30T13:55:07.792Z,97674.00
2022-10-30T13:58:02.206Z,97675.00
2022-10-30T14:01:04.879Z,97683.00
2022-10-30T14:03:50.893Z,97674.00
2022-10-30T14:07:29.809Z,97675.00
2022-10-30T14:10:39.784Z,97668.00
2022-10-30T14:13:43.877Z,97674.00
2022-10-30T14:16:58.784Z,97675.00
2022-10-30T14:20:15.844Z,97667.00
2022-10-30T14:23:19.880Z,97667.00
2022-10-30T14:26:12.827Z,97666.00
2022-10-30T14:28:56.561Z,97676.00
2022-10-30T14:31:43.862Z,97666.00
2022-10-30T14:34:58.822Z,97664.00
2022-10-30T14:37:39.477Z,97669.00
2022-10-30T14:40:50.916Z,97688.00
2022-10-30T14:43:45.176Z,97679.00
2022-10-30T14:47:05.839Z,97676.00
2022-10-30T14:50:05.843Z,97681.00
2022-10-30T14:52:54.902Z,97683.00
2022-10-30T14:56:08.880Z,97690.00
2022-10-30T14:58:49.918Z,97688.00
2022-10-30T15:01:54.998Z,97696.00
2022-10-30T15:05:22.913Z,97708.00
2022-10-30T15:08:50.029Z,97710.00
2022-10-30T15:12:15.892Z,97716.00
2022-10-30T15:15:09.845Z,97712.00
2022-10-30T15:17:54.938Z,97715.00
2022-10-30T15:20:45.867Z,97715.00
2022-10-30T15:23:37.927Z,97708.00
2022-10-30T15:26:32.850Z,97711.00
2022-10-30T15:29:18.928Z,97709.00
2022-10-30T15:32:31.868Z,97712.00
2022-10-30T15:35:38.851Z,97704.00
2022-10-30T15:38:19.571Z,97700.00
2022-10-30T15:41:15.880Z,97717.00
2022-10-30T15:43:58.892Z,97708.00
2022-10-30T15:46:45.877Z,97711.00
2022-10-30T15:49:41.885Z,97702.00
2022-10-30T15:52:35.957Z,97705.00
2022-10-30T15:55:30.897Z,97695.00
2022-10-30T15:58:11.934Z,97705.00
2022-10-30T16:01:07.917Z,97705.00
2022-10-30T16:03:57.954Z,97704.00
2022-10-30T16:06:44.910Z,97714.00
2022-10-30T16:09:24.990Z,97706.00
2022-10-30T16:12:12.995Z,97716.00
2022-10-30T16:15:00.923Z,97713.00
2022-10-30T16:17:42.173Z,97720.00
2022-10-30T16:20:30.907Z,97727.00
2022-10-30T16:23:23.073Z,97726.00
2022-10-30T16:26:05.914Z,97735.00
2022-10-30T16:28:48.041Z,97739.00
2022-10-30T16:31:35.912Z,97735.00
2022-10-30T16:34:27.637Z,97743.00
2022-10-30T16:37:16.910Z,97748.00
2022-10-30T16:40:12.901Z,97749.00
2022-10-30T16:43:04.305Z,97738.00
2022-10-30T16:45:55.892Z,97739.00
2022-10-30T16:48:41.978Z,97757.00
2022-10-30T16:51:29.918Z,97744.00
2022-10-30T16:54:09.989Z,97757.00
2022-10-30T16:57:02.942Z,97760.00
2022-10-30T16:59:58.913Z,97768.00
2022-10-30T17:02:47.769Z,97778.00
2022-10-30T17:05:53.912Z,97774.00
2022-10-30T17:08:43.257Z,97781.00
2022-10-30T17:11:33.925Z,97769.00
2022-10-30T17:14:21.956Z,97779.00
2022-10-30T17:17:13.017Z,97784.00
2022-10-30T17:19:58.500Z,97789.00
2022-10-30T17:22:47.929Z,97805.00
2022-10-30T17:25:44.943Z,97800.00
2022-10-30T17:28:45.991Z,97802.00
2022-10-30T17:31:44.918Z,97810.00
2022-10-30T17:34:33.944Z,97809.00
2022-10-30T17:37:21.921Z,97810.00
2022-10-30T17:40:09.955Z,97823.00
2022-10-30T17:42:56.995Z,97817.00
2022-10-30T17:45:36.938Z,97812.00
2022-10-30T17:48:33.009Z,97833.00
2022-10-30T17:51:12.933Z,97840.00
2022-10-30T17:53:53.660Z,97832.00
2022-10-30T17:56:46.938Z,97836.00
2022-10-30T17:59:27.713Z,97851.00
2022-10-30T18:02:14.000Z,97842.00
2022-10-30T18:05:01.929Z,97841.00
2022-10-30T18:07:42.125Z,97852.00
2022-10-30T18:10:28.933Z,97859.00
2022-10-30T18:13:09.015Z,97863.00
2022-10-30T18:16:04.953Z,97857.00
2022-10-30T18:18:45.429Z,97867.00
2022-10-30T18:21:33.955Z,97865.00
2022-10-30T18:24:19.014Z,97867.00
2022-10-30T18:27:05.971Z,97870.00
2022-10-30T18:29:52.953Z,97877.00
2022-10-30T18:32:33.763Z,97870.00
2022-10-30T18:35:50.976Z,97876.00
2022-10-30T18:38:31.599Z,97893.00
2022-10-30T18:41:18.973Z,97876.00
2022-10-30T18:44:00.168Z,97885.00
2022-10-30T18:46:47.973Z,97874.00
2022-10-30T18:49:31.780Z,97891.00
2022-10-30T18:52:17.982Z,97892.00
2022-10-30T18:55:04.997Z,97892.00
2022-10-30T18:57:52.006Z,97902.00
2022-10-30T19:01:10.099Z,97894.00
2022-10-30T19:03:41.033Z,97917.00
2022-10-30T19:06:32.112Z,97911.00
2022-10-30T19:09:13.031Z,97915.00
2022-10-30T19:12:00.034Z,97915.00
2022-10-30T19:14:55.995Z,97908.00
2022-10-30T19:17:36.806Z,97926.00
2022-10-30T19:20:37.706Z,97924.00
2022-10-30T19:23:25.978Z,97910.00
2022-10-30T19:26:13.000Z,97907.00
2022-10-30T19:28:59.992Z,97905.00
2022-10-30T19:31:40.047Z,97918.00
2022-10-30T19:34:27.001Z,97921.00
2022-10-30T19:37:07.061Z,97921.00
2022-10-30T19:39:54.008Z,97917.00
2022-10-30T19:42:34.045Z,97913.00
2022-10-30T19:45:23.011Z,97925.00
2022-10-30T19:48:07.054Z,97919.00
2022-10-30T19:50:54.003Z,97905.00
2022-10-30T19:53:40.989Z,97913.00
2022-10-30T19:56:29.023Z,97914.00
2022-10-30T19:59:16.011Z,97931.00
2022-10-30T20:01:56.833Z,97935.00
2022-10-30T20:04:44.009Z,97933.00
2022-10-30T20:07:24.702Z,97932.00
2022-10-30T20:10:11.022Z,97932.00
2022-10-30T20:12:51.713Z,97939.00
2022-10-30T20:15:40.143Z,97937.00
2022-10-30T20:18:38.026Z,97934.00
2022-10-30T20:21:27.160Z,97940.00
2022-10-30T20:24:16.021Z,97959.00
2022-10-30T20:26:57.256Z,97943.00
2022-10-30T20:29:48.020Z,97947.00
2022-10-30T20:32:28.097Z,97936.00
2022-10-30T20:35:16.029Z,97936.00
2022-10-30T20:38:10.101Z,97946.00
2022-10-30T20:40:57.034Z,97952.00
2022-10-30T20:43:44.101Z,97950.00
2022-10-30T20:46:31.016Z,97952.00
2022-10-30T20:49:18.601Z,97951.00
2022-10-30T20:51:58.656Z,97958.00
2022-10-30T20:54:45.025Z,97965.00
2022-10-30T20:57:25.704Z,97953.00
2022-10-30T21:00:12.027Z,97967.00
2022-10-30T21:02:52.743Z,97953.00
2022-10-30T21:05:44.648Z,97967.00
2022-10-30T21:08:27.749Z,97962.00
2022-10-30T21:11:17.041Z,97974.00
2022-10-30T21:14:05.041Z,97973.00
2022-10-30T21:16:45.126Z,97964.00
2022-10-30T21:19:33.048Z,97982.00
2022-10-30T21:22:13.099Z,97975.00
2022-10-30T21:25:00.081Z,97975.00
2022-10-30T21:27:40.180Z,97975.00
2022-10-30T21:30:27.059Z,97973.00
2022-10-30T21:33:07.126Z,97979.00
2022-10-30T21:35:54.073Z,97967.00
2022-10-30T21:38:34.102Z,97977.00
2022-10-30T21:41:26.077Z,97978.00
2022-10-30T21:44:14.079Z,97986.00
2022-10-30T21:47:01.056Z,97968.00
2022-10-30T21:49:48.074Z,97966.00
2022-10-30T21:52:35.126Z,97979.00
2022-10-30T21:55:16.095Z,97964.00
2022-10-30T21:57:56.949Z,97957.00
2022-10-30T22:00:45.121Z,97963.00
2022-10-30T22:03:25.764Z,97966.00
2022-10-30T22:06:12.061Z,97965.00
2022-10-30T22:08:54.874Z,97962.00
2022-10-30T22:11:42.074Z,97952.00
2022-10-30T22:14:31.095Z,97960.00
2022-10-30T22:17:12.604Z,97943.00
2022-10-30T22:19:59.105Z,97964.00
2022-10-30T22:22:39.157Z,97971.00
2022-10-30T22:25:26.068Z,97970.00
2022-10-30T22:28:06.194Z,97968.00
2022-10-30T22:30:53.087Z,97958.00
2022-10-30T22:33:43.106Z,97961.00
2022-10-30T22:36:30.525Z,97984.00
2022-10-30T22:39:25.102Z,97989.00
2022-10-30T22:42:05.808Z,97982.00
2022-10-30T22:44:52.090Z,97980.00
2022-10-30T22:47:32.715Z,97999.00
2022-10-30T22:50:20.105Z,98008.00
2022-10-30T22:53:00.865Z,97998.00
2022-10-30T22:55:47.095Z,98001.00
2022-10-30T22:58:29.509Z,98015.00
2022-10-30T23:01:32.160Z,98010.00
2022-10-30T23:04:24.080Z,98010.00
2022-10-30T23:07:04.168Z,98022.00
2022-10-30T23:09:51.105Z,98007.00
2022-10-30T23:12:31.256Z,98007.00
2022-10-30T23:15:18.123Z,98017.00
2022-10-30T23:17:58.633Z,98013.00
2022-10-30T23:20:54.109Z,98017.00
2022-10-30T23:23:42.107Z,98037.00
2022-10-30T23:26:29.549Z,98036.00
2022-10-30T23:29:17.105Z,98018.00
2022-10-30T23:31:57.752Z,98031.00
2022-10-30T23:34:44.125Z,98043.00
2022-10-30T23:37:24.746Z,98033.00
2022-10-30T23:40:11.134Z,98038.00
2022-10-30T23:43:02.423Z,98042.00
2022-10-30T23:45:42.183Z,98051.00
2022-10-30T23:48:29.128Z,98044.00
2022-10-30T23:51:16.203Z,98041.00
2022-10-30T23:54:03.148Z,98043.00
2022-10-30T23:56:43.355Z,98046.00
2022-10-30T23:59:30.137Z,98039.00
